OAL463 EGLL-KJFK
Flight info
| Callsign | OAL463 |
|---|---|
| Flight time | N/A |
| Altitude | 30000 |
| Route | ULTIB T420 TNT UL28 PENIL M144 BAGSO DCT RINUS DCT MALOT/M084F300 NATE RIKAL/N0482F300 N572A TOPPS DCT ENE PARCH4 |
| Aircraft | B77L/H-SDE1E2E3FGHIJ2J3J4J5M1RWXY/LB1D1 |
Departure
| Time | 2026-05-05 13:44 |
|---|---|
| Airport | London Heathrow Airport (EGLL) |
Arrival
| Time | N/A |
|---|---|
| Airport | John F. Kennedy International Airport (KJFK) |
| Time | Latitude | Longitude | Altitude | Speed | Heading |
|---|---|---|---|---|---|
| 2026-05-05 13:21 | 51.47053 | -0.47000 | 94 ft | 0 kts | 269° |
| 2026-05-05 13:29 | 51.47053 | -0.46976 | 90 ft | 3 kts | 269° |
| 2026-05-05 13:29 | 51.47054 | -0.46942 | 94 ft | 3 kts | 269° |
| 2026-05-05 13:29 | 51.47054 | -0.46909 | 90 ft | 3 kts | 269° |
| 2026-05-05 13:30 | 51.47054 | -0.46878 | 94 ft | 3 kts | 234° |
| 2026-05-05 13:30 | 51.47069 | -0.46863 | 90 ft | 3 kts | 185° |
| 2026-05-05 13:30 | 51.47081 | -0.46862 | 90 ft | 0 kts | 179° |
| 2026-05-05 13:31 | 51.47076 | -0.46862 | 90 ft | 3 kts | 181° |
| 2026-05-05 13:31 | 51.47017 | -0.46862 | 93 ft | 15 kts | 180° |
| 2026-05-05 13:31 | 51.46912 | -0.46863 | 93 ft | 15 kts | 180° |
| 2026-05-05 13:32 | 51.46807 | -0.46863 | 94 ft | 15 kts | 180° |
| 2026-05-05 13:32 | 51.46702 | -0.46864 | 92 ft | 15 kts | 184° |
| 2026-05-05 13:32 | 51.46658 | -0.47002 | 95 ft | 15 kts | 265° |
| 2026-05-05 13:32 | 51.46656 | -0.47171 | 93 ft | 15 kts | 270° |
| 2026-05-05 13:33 | 51.46656 | -0.47340 | 94 ft | 15 kts | 270° |
| 2026-05-05 13:33 | 51.46655 | -0.47509 | 94 ft | 15 kts | 270° |
| 2026-05-05 13:33 | 51.46655 | -0.47566 | 95 ft | 15 kts | 270° |
| 2026-05-05 13:33 | 51.46655 | -0.47678 | 91 ft | 15 kts | 270° |
| 2026-05-05 13:35 | 51.46654 | -0.48395 | 91 ft | 0 kts | 270° |
| 2026-05-05 13:35 | 51.46654 | -0.48399 | 91 ft | 3 kts | 270° |
| 2026-05-05 13:35 | 51.46654 | -0.48453 | 91 ft | 5 kts | 270° |
| 2026-05-05 13:36 | 51.46654 | -0.48512 | 91 ft | 5 kts | 270° |
| 2026-05-05 13:36 | 51.46654 | -0.48571 | 92 ft | 5 kts | 269° |
| 2026-05-05 13:36 | 51.46654 | -0.48630 | 91 ft | 5 kts | 269° |
| 2026-05-05 13:36 | 51.46652 | -0.48679 | 90 ft | 0 kts | 264° |
| 2026-05-05 13:39 | 51.46651 | -0.48686 | 92 ft | 3 kts | 264° |
| 2026-05-05 13:39 | 51.46651 | -0.48701 | 90 ft | 4 kts | 264° |
| 2026-05-05 13:40 | 51.46604 | -0.48763 | 90 ft | 0 kts | 204° |
| 2026-05-05 13:40 | 51.46601 | -0.48765 | 94 ft | 3 kts | 204° |
| 2026-05-05 13:41 | 51.46554 | -0.48782 | 95 ft | 9 kts | 179° |
| 2026-05-05 13:41 | 51.46500 | -0.48749 | 90 ft | 9 kts | 137° |
| 2026-05-05 13:41 | 51.46479 | -0.48659 | 92 ft | 9 kts | 94° |
| 2026-05-05 13:41 | 51.46479 | -0.48625 | 91 ft | 0 kts | 90° |
| 2026-05-05 13:42 | 51.46479 | -0.48624 | 91 ft | 0 kts | 90° |
| 2026-05-05 13:43 | 51.46479 | -0.48606 | 91 ft | 10 kts | 90° |
| 2026-05-05 13:43 | 51.46480 | -0.48175 | 92 ft | 76 kts | 90° |
| 2026-05-05 13:43 | 51.46487 | -0.46904 | 94 ft | 149 kts | 89° |
| 2026-05-05 13:43 | 51.46496 | -0.44905 | 152 ft | 201 kts | 89° |
| 2026-05-05 13:44 | 51.46516 | -0.42690 | 804 ft | 199 kts | 89° |
| 2026-05-05 13:44 | 51.46610 | -0.40478 | 1372 ft | 201 kts | 69° |
| 2026-05-05 13:44 | 51.47411 | -0.38711 | 1708 ft | 204 kts | 43° |
| 2026-05-05 13:44 | 51.48372 | -0.36945 | 2120 ft | 211 kts | 53° |
| 2026-05-05 13:45 | 51.49266 | -0.35078 | 2600 ft | 215 kts | 50° |
| 2026-05-05 13:45 | 51.50224 | -0.33202 | 3112 ft | 220 kts | 49° |
| 2026-05-05 13:45 | 51.51218 | -0.31286 | 3610 ft | 227 kts | 49° |
| 2026-05-05 13:45 | 51.52239 | -0.29312 | 4111 ft | 233 kts | 51° |
| 2026-05-05 13:46 | 51.52992 | -0.26982 | 4533 ft | 240 kts | 71° |
| 2026-05-05 13:46 | 51.53498 | -0.24384 | 5035 ft | 247 kts | 70° |
| 2026-05-05 13:46 | 51.54056 | -0.21730 | 5540 ft | 256 kts | 70° |
| 2026-05-05 13:46 | 51.54869 | -0.19188 | 5898 ft | 261 kts | 44° |
| 2026-05-05 13:47 | 51.56422 | -0.17706 | 5947 ft | 266 kts | 9° |
| 2026-05-05 13:47 | 51.58269 | -0.17969 | 5998 ft | 274 kts | 335° |
| 2026-05-05 13:47 | 51.59785 | -0.19805 | 6013 ft | 275 kts | 315° |
| 2026-05-05 13:47 | 51.61189 | -0.21946 | 6005 ft | 282 kts | 322° |
| 2026-05-05 13:48 | 51.62780 | -0.23845 | 6014 ft | 287 kts | 324° |
| 2026-05-05 13:48 | 51.64378 | -0.25804 | 6012 ft | 290 kts | 324° |
| 2026-05-05 13:48 | 51.66030 | -0.27668 | 6010 ft | 290 kts | 327° |
| 2026-05-05 13:48 | 51.67729 | -0.29431 | 6004 ft | 290 kts | 329° |
| 2026-05-05 13:49 | 51.69452 | -0.31144 | 6327 ft | 293 kts | 329° |
| 2026-05-05 13:49 | 51.71201 | -0.32848 | 7100 ft | 294 kts | 329° |
| 2026-05-05 13:49 | 51.72958 | -0.34548 | 7845 ft | 296 kts | 329° |
| 2026-05-05 13:49 | 51.74740 | -0.36267 | 8516 ft | 301 kts | 329° |
| 2026-05-05 13:50 | 51.76552 | -0.38006 | 9178 ft | 305 kts | 329° |
| 2026-05-05 13:50 | 51.78387 | -0.39768 | 9845 ft | 308 kts | 329° |
| 2026-05-05 13:50 | 51.80238 | -0.41547 | 10513 ft | 311 kts | 329° |
| 2026-05-05 13:50 | 51.82109 | -0.43358 | 11134 ft | 316 kts | 329° |
| 2026-05-05 13:51 | 51.84020 | -0.45222 | 11618 ft | 325 kts | 329° |
| 2026-05-05 13:51 | 51.85981 | -0.47141 | 12109 ft | 334 kts | 329° |
| 2026-05-05 13:51 | 51.87991 | -0.49111 | 12590 ft | 343 kts | 329° |
| 2026-05-05 13:51 | 51.90062 | -0.51139 | 13062 ft | 351 kts | 329° |
| 2026-05-05 13:52 | 51.92173 | -0.53208 | 13550 ft | 360 kts | 329° |
| 2026-05-05 13:52 | 51.94339 | -0.55333 | 14061 ft | 366 kts | 329° |
| 2026-05-05 13:52 | 51.96530 | -0.57474 | 14676 ft | 370 kts | 329° |
| 2026-05-05 13:52 | 51.98748 | -0.59637 | 15319 ft | 373 kts | 329° |
| 2026-05-05 13:53 | 52.00951 | -0.61785 | 15895 ft | 376 kts | 329° |
| 2026-05-05 13:53 | 52.03198 | -0.63976 | 16524 ft | 378 kts | 328° |
| 2026-05-05 13:53 | 52.05459 | -0.66191 | 17099 ft | 381 kts | 328° |
| 2026-05-05 13:53 | 52.07742 | -0.68430 | 17616 ft | 386 kts | 328° |
| 2026-05-05 13:54 | 52.10052 | -0.70697 | 18164 ft | 389 kts | 328° |
| 2026-05-05 13:54 | 52.12374 | -0.72979 | 18689 ft | 392 kts | 328° |
| 2026-05-05 13:54 | 52.14718 | -0.75289 | 19234 ft | 395 kts | 328° |
| 2026-05-05 13:54 | 52.17076 | -0.77623 | 19677 ft | 401 kts | 328° |
| 2026-05-05 13:55 | 52.19509 | -0.80040 | 19787 ft | 415 kts | 328° |
| 2026-05-05 13:55 | 52.22006 | -0.82520 | 20067 ft | 424 kts | 328° |
| 2026-05-05 13:55 | 52.24546 | -0.85044 | 20481 ft | 429 kts | 328° |
| 2026-05-05 13:55 | 52.27107 | -0.87588 | 20984 ft | 432 kts | 328° |
| 2026-05-05 13:56 | 52.29674 | -0.90132 | 21497 ft | 434 kts | 328° |
| 2026-05-05 13:56 | 52.32262 | -0.92699 | 21980 ft | 436 kts | 328° |
| 2026-05-05 13:56 | 52.34866 | -0.95287 | 22423 ft | 440 kts | 328° |
| 2026-05-05 13:56 | 52.37490 | -0.97898 | 22864 ft | 443 kts | 328° |
| 2026-05-05 13:57 | 52.40131 | -1.00527 | 23315 ft | 445 kts | 328° |
| 2026-05-05 13:57 | 52.42786 | -1.03178 | 23746 ft | 448 kts | 328° |
| 2026-05-05 13:57 | 52.45458 | -1.05850 | 24161 ft | 451 kts | 328° |
| 2026-05-05 13:57 | 52.48136 | -1.08533 | 24560 ft | 454 kts | 327° |
| 2026-05-05 13:58 | 52.50836 | -1.11249 | 24963 ft | 456 kts | 327° |
| 2026-05-05 13:58 | 52.53548 | -1.14000 | 25360 ft | 459 kts | 327° |
| 2026-05-05 13:58 | 52.56266 | -1.16765 | 25745 ft | 461 kts | 327° |
| 2026-05-05 13:58 | 52.59004 | -1.19543 | 26126 ft | 464 kts | 327° |
| 2026-05-05 13:59 | 52.64526 | -1.25134 | 26869 ft | 468 kts | 327° |
| 2026-05-05 13:59 | 52.67308 | -1.27958 | 27204 ft | 471 kts | 327° |
| 2026-05-05 14:00 | 52.72916 | -1.33664 | 27895 ft | 476 kts | 327° |
| 2026-05-05 14:00 | 52.74779 | -1.35560 | 28118 ft | 477 kts | 327° |
| 2026-05-05 14:00 | 52.78566 | -1.39418 | 28539 ft | 480 kts | 327° |
| 2026-05-05 14:00 | 52.81374 | -1.42283 | 28828 ft | 482 kts | 327° |
| 2026-05-05 14:01 | 52.84232 | -1.45205 | 29122 ft | 484 kts | 327° |
| 2026-05-05 14:01 | 52.87130 | -1.48174 | 29416 ft | 485 kts | 327° |
| 2026-05-05 14:01 | 52.89965 | -1.51082 | 29777 ft | 484 kts | 327° |
| 2026-05-05 14:01 | 52.92863 | -1.54058 | 30046 ft | 485 kts | 327° |
| 2026-05-05 14:02 | 52.94767 | -1.56017 | 29983 ft | 487 kts | 327° |